Time;durP1;ratioP1;P1;durP2;ratioP2;P2;SDS_P1;SDS_P2;PMS_P1;PMS_P2;Temp;Humidity;BMP_temperature;BMP_pressure;BME280_temperature;BME280_humidity;BME280_pressure;Samples;Min_cycle;Max_cycle;Signal;HPM_P1;HPM_P2
2021/01/08 00:01:57;;;;;;;47.37;17.87;;;-0.70;99.90;;;;;;4412651;28;659942;-68
2021/01/08 00:04:44;;;;;;;42.90;14.30;;;-0.80;99.90;;;;;;4391678;28;658937;-67
2021/01/08 00:07:33;;;;;;;49.00;18.43;;;-0.60;99.90;;;;;;4407629;28;660068;-67
2021/01/08 00:10:20;;;;;;;48.53;17.70;;;-0.50;99.90;;;;;;4391621;28;659305;-68
2021/01/08 00:13:07;;;;;;;51.47;18.27;;;-0.30;99.90;;;;;;4415258;28;660315;-68
2021/01/08 00:15:55;;;;;;;48.77;19.10;;;-0.30;99.90;;;;;;4388693;28;659881;-67
2021/01/08 00:18:42;;;;;;;14.33;6.30;;;-0.40;99.90;;;;;;4412693;28;659813;-68
2021/01/08 00:21:37;;;;;;;47.47;18.13;;;-0.20;99.90;;;;;;4397104;28;657422;-67
2021/01/08 00:24:24;;;;;;;46.35;18.20;;;-0.40;99.90;;;;;;4372443;28;659387;-66
2021/01/08 00:27:11;;;;;;;43.80;15.40;;;-0.50;99.90;;;;;;4414684;28;658660;-68
2021/01/08 00:29:58;;;;;;;40.40;16.83;;;-0.30;99.90;;;;;;4407381;28;659482;-68
2021/01/08 00:32:46;;;;;;;53.10;18.67;;;-0.40;99.90;;;;;;4389676;28;659667;-67
2021/01/08 00:35:36;;;;;;;47.43;17.47;;;-0.50;99.90;;;;;;4412225;28;659071;-65
2021/01/08 00:38:24;;;;;;;51.43;19.40;;;-0.60;99.90;;;;;;4403960;28;658694;-66
2021/01/08 00:41:11;;;;;;;45.90;17.97;;;-0.70;99.90;;;;;;4418504;28;658039;-68
2021/01/08 00:43:58;;;;;;;52.90;18.77;;;-0.70;99.90;;;;;;4413835;28;659223;-68
2021/01/08 00:46:45;;;;;;;49.00;19.63;;;-0.70;99.90;;;;;;4388073;28;658564;-68
2021/01/08 00:49:33;;;;;;;48.13;17.93;;;-0.80;99.90;;;;;;4410935;28;659202;-68
2021/01/08 00:52:20;;;;;;;50.30;18.47;;;-0.60;99.90;;;;;;4387322;28;659783;-68
2021/01/08 00:55:08;;;;;;;49.87;16.50;;;-0.70;99.90;;;;;;4409521;28;659040;-68
2021/01/08 00:57:56;;;;;;;29.87;9.73;;;-0.50;99.90;;;;;;4379132;28;661310;-68
2021/01/08 01:00:43;;;;;;;61.67;22.77;;;-0.20;99.90;;;;;;4397120;28;657846;-68
2021/01/08 01:03:30;;;;;;;70.88;23.63;;;-0.30;99.90;;;;;;4378031;28;658209;-68
2021/01/08 01:06:24;;;;;;;59.53;22.77;;;-0.40;99.90;;;;;;4396513;28;659399;-68
2021/01/08 01:09:11;;;;;;;60.50;22.67;;;-0.20;99.90;;;;;;4344595;28;659955;-68
2021/01/08 01:11:59;;;;;;;59.23;23.27;;;0.00;99.90;;;;;;4390941;28;658819;-66
2021/01/08 01:14:46;;;;;;;61.47;24.53;;;-0.10;99.90;;;;;;4399279;28;657412;-68
2021/01/08 01:17:33;;;;;;;62.33;25.17;;;-0.20;99.90;;;;;;4394231;28;658475;-68
2021/01/08 01:20:20;;;;;;;61.25;23.70;;;-0.20;99.90;;;;;;4371794;28;658721;-67
2021/01/08 01:23:07;;;;;;;62.27;24.73;;;-0.30;99.90;;;;;;4396105;28;660151;-68
2021/01/08 01:25:54;;;;;;;65.90;25.23;;;-0.40;99.90;;;;;;4377004;28;658855;-68
2021/01/08 01:28:41;;;;;;;65.60;25.80;;;-0.50;99.90;;;;;;4391054;28;659188;-68
2021/01/08 01:31:29;;;;;;;57.83;24.17;;;-0.40;99.90;;;;;;4386745;28;660273;-65
2021/01/08 01:34:16;;;;;;;66.60;25.37;;;-0.40;99.90;;;;;;4399914;28;658598;-68
2021/01/08 01:37:03;;;;;;;61.22;25.38;;;-0.50;99.90;;;;;;4389763;28;659491;-68
2021/01/08 01:39:51;;;;;;;68.90;27.02;;;-0.60;99.90;;;;;;4371805;28;658437;-68
2021/01/08 01:42:38;;;;;;;63.73;25.90;;;-0.70;99.90;;;;;;4391356;28;659052;-68
2021/01/08 01:45:25;;;;;;;65.17;24.93;;;-0.70;99.90;;;;;;4374940;28;658791;-68
2021/01/08 01:48:12;;;;;;;62.77;24.53;;;-0.80;99.90;;;;;;4393997;28;659320;-68
2021/01/08 01:50:59;;;;;;;66.13;25.02;;;-0.80;99.90;;;;;;4377646;28;659746;-66
2021/01/08 01:53:46;;;;;;;61.23;23.60;;;-0.80;99.90;;;;;;4391795;28;659051;-68
2021/01/08 01:56:34;;;;;;;63.40;24.10;;;-0.70;99.90;;;;;;4386422;28;658988;-68
2021/01/08 01:59:21;;;;;;;55.13;23.03;;;-0.70;99.90;;;;;;4391063;28;659641;-68
2021/01/08 02:02:13;;;;;;;59.23;23.90;;;-0.70;99.90;;;;;;4402780;28;658884;-68
2021/01/08 02:05:01;;;;;;;60.53;23.23;;;-0.70;99.90;;;;;;4363264;28;659571;-68
2021/01/08 02:07:52;;;;;;;121.77;25.53;;;-0.80;99.90;;;;;;4401957;28;658664;-66
2021/01/08 02:10:42;;;;;;;54.27;23.27;;;-0.80;99.90;;;;;;4383368;28;660089;-67
2021/01/08 02:13:35;;;;;;;56.47;22.57;;;-0.70;99.90;;;;;;4392799;28;658273;-65
2021/01/08 02:16:23;;;;;;;59.70;22.90;;;-0.70;99.90;;;;;;4386887;28;659292;-68
2021/01/08 02:19:15;;;;;;;51.77;21.03;;;-0.70;99.90;;;;;;4393480;28;658689;-68
2021/01/08 02:22:06;;;;;;;59.90;22.77;;;-0.70;99.90;;;;;;4378985;28;659164;-68
2021/01/08 02:25:13;;;;;;;60.17;23.03;;;-0.80;99.90;;;;;;4380792;28;659858;-68
2021/01/08 02:28:22;;;;;;;57.30;23.40;;;-0.80;99.90;;;;;;4363390;28;659665;-68
2021/01/08 02:31:09;;;;;;;60.80;22.57;;;-0.80;99.90;;;;;;4371920;28;658820;-67
2021/01/08 02:33:56;;;;;;;63.80;23.87;;;-0.80;99.90;;;;;;4416162;28;658407;-68
2021/01/08 02:36:44;;;;;;;58.40;23.37;;;-0.80;99.90;;;;;;4399374;28;658801;-66
2021/01/08 02:39:31;;;;;;;56.83;22.67;;;-0.90;99.90;;;;;;4415199;28;659329;-68
2021/01/08 02:42:20;;;;;;;54.15;21.80;;;-0.90;99.90;;;;;;4399898;28;659322;-66
2021/01/08 02:45:08;;;;;;;55.33;22.57;;;-0.90;99.90;;;;;;4412967;28;659509;-68
2021/01/08 02:47:55;;;;;;;48.95;20.85;;;-1.00;99.90;;;;;;4387357;28;658744;-68
2021/01/08 02:50:42;;;;;;;51.08;20.05;;;-1.00;99.90;;;;;;4409510;28;660411;-68
2021/01/08 02:53:29;;;;;;;49.00;20.43;;;-1.00;99.90;;;;;;4390401;28;658477;-67
2021/01/08 02:56:17;;;;;;;55.67;20.50;;;-1.00;99.90;;;;;;4416191;28;660394;-68
2021/01/08 02:59:05;;;;;;;50.17;20.47;;;-1.00;99.90;;;;;;4392533;28;659122;-68
2021/01/08 03:01:52;;;;;;;50.80;19.57;;;-1.00;99.90;;;;;;4414722;28;658913;-68
2021/01/08 03:04:39;;;;;;;49.13;20.90;;;-1.00;99.90;;;;;;4394102;28;658628;-67
2021/01/08 03:07:26;;;;;;;49.53;19.93;;;-1.00;99.90;;;;;;4419088;28;659299;-68
2021/01/08 03:10:14;;;;;;;46.67;19.47;;;-0.90;99.90;;;;;;4399599;28;658560;-65
2021/01/08 03:13:02;;;;;;;48.07;19.73;;;-1.00;99.90;;;;;;4419423;28;659864;-68
2021/01/08 03:15:50;;;;;;;49.77;19.53;;;-1.00;99.90;;;;;;4397377;28;658587;-67
2021/01/08 03:18:37;;;;;;;48.97;20.83;;;-1.00;99.90;;;;;;4416109;28;659274;-68
2021/01/08 03:21:24;;;;;;;51.33;20.17;;;-1.00;99.90;;;;;;4385413;28;658694;-67
2021/01/08 03:24:11;;;;;;;47.17;20.10;;;-1.10;99.90;;;;;;4415802;28;660007;-67
2021/01/08 03:26:59;;;;;;;48.10;19.73;;;-1.10;99.90;;;;;;4410717;28;658533;-68
2021/01/08 03:29:45;;;;;;;60.97;23.93;;;-1.10;99.90;;;;;;4415478;28;658896;-67
2021/01/08 03:32:34;;;;;;;59.63;22.20;;;-1.10;99.90;;;;;;4410193;28;658983;-68
2021/01/08 03:35:21;;;;;;;60.38;23.05;;;-1.10;99.90;;;;;;4393278;28;660192;-68
2021/01/08 03:38:07;;;;;;;56.43;21.50;;;-0.90;99.90;;;;;;4410994;28;658401;-68
2021/01/08 03:40:54;;;;;;;57.40;20.83;;;-0.90;99.90;;;;;;4397281;28;659918;-67
2021/01/08 03:43:41;;;;;;;50.47;19.63;;;-0.90;99.90;;;;;;4417405;28;659040;-68
2021/01/08 03:46:29;;;;;;;47.40;18.80;;;-1.00;99.90;;;;;;4401730;28;659158;-66
2021/01/08 03:49:16;;;;;;;43.90;18.53;;;-0.90;99.90;;;;;;4418847;28;658398;-68
2021/01/08 03:52:04;;;;;;;43.37;18.43;;;-0.90;99.90;;;;;;4394592;28;658574;-65
2021/01/08 03:54:51;;;;;;;45.53;18.83;;;-0.90;99.90;;;;;;4415154;28;660734;-68
2021/01/08 03:57:38;;;;;;;48.03;18.20;;;-0.90;99.90;;;;;;4410297;28;658469;-68
2021/01/08 04:00:25;;;;;;;50.47;20.33;;;-0.80;99.90;;;;;;4391979;28;659508;-68
2021/01/08 04:03:12;;;;;;;45.60;18.87;;;-0.80;99.90;;;;;;4414944;28;659599;-68
2021/01/08 04:06:00;;;;;;;56.87;21.73;;;-0.80;99.90;;;;;;4394789;28;658786;-67
2021/01/08 04:08:47;;;;;;;46.77;19.07;;;-0.80;99.90;;;;;;4414995;28;658824;-68
2021/01/08 04:11:34;;;;;;;55.13;21.23;;;-0.80;99.90;;;;;;4382933;28;658749;-67
2021/01/08 04:14:21;;;;;;;47.07;19.40;;;-0.80;99.90;;;;;;4414673;28;660009;-68
2021/01/08 04:17:08;;;;;;;105.40;22.00;;;-0.80;99.90;;;;;;4409271;28;658198;-68
2021/01/08 04:19:55;;;;;;;52.97;20.47;;;-0.70;99.90;;;;;;4392185;28;659916;-68
2021/01/08 04:22:43;;;;;;;55.80;21.60;;;-0.80;99.90;;;;;;4408817;28;659916;-68
2021/01/08 04:25:30;;;;;;;50.92;21.25;;;-0.70;99.90;;;;;;4388690;28;658640;-68
2021/01/08 04:28:17;;;;;;;47.60;19.20;;;-0.80;99.90;;;;;;4414907;28;660585;-68
2021/01/08 04:31:04;;;;;;;45.75;19.27;;;-0.70;99.90;;;;;;4394492;28;659227;-65
2021/01/08 04:33:54;;;;;;;50.10;20.23;;;-0.70;99.90;;;;;;4415180;28;659282;-68
2021/01/08 04:36:41;;;;;;;50.03;20.10;;;-0.70;99.90;;;;;;4385001;28;660142;-68
2021/01/08 04:39:29;;;;;;;48.90;20.17;;;-0.70;99.90;;;;;;4406880;28;658221;-68
2021/01/08 04:42:16;;;;;;;52.17;21.10;;;-0.70;99.90;;;;;;4387854;28;659907;-68
2021/01/08 04:45:04;;;;;;;45.00;19.97;;;-0.70;99.90;;;;;;4414989;28;658172;-68
2021/01/08 04:47:51;;;;;;;44.23;18.60;;;-0.70;99.90;;;;;;4381343;28;659907;-68
2021/01/08 04:50:38;;;;;;;46.73;19.63;;;-0.70;99.90;;;;;;4414032;28;658490;-68
2021/01/08 04:53:26;;;;;;;49.00;19.90;;;-0.70;99.90;;;;;;4393135;28;658443;-68
2021/01/08 04:56:14;;;;;;;50.80;20.15;;;-0.70;99.90;;;;;;4412368;28;658252;-68
2021/01/08 04:59:01;;;;;;;50.63;20.67;;;-0.70;99.90;;;;;;4369485;28;659526;-68
2021/01/08 05:01:49;;;;;;;56.90;21.37;;;-0.70;99.90;;;;;;4381703;28;658620;-65
2021/01/08 05:04:35;;;;;;;47.80;21.07;;;-0.70;99.90;;;;;;4394710;28;658520;-68
2021/01/08 05:07:23;;;;;;;45.27;19.50;;;-0.70;99.90;;;;;;4397198;28;658952;-68
2021/01/08 05:10:11;;;;;;;46.67;19.67;;;-0.70;99.90;;;;;;4369055;28;658506;-68
2021/01/08 05:12:59;;;;;;;47.67;19.83;;;-0.70;99.90;;;;;;4396475;28;658335;-68
2021/01/08 05:15:51;;;;;;;43.73;18.93;;;-0.70;99.90;;;;;;4369025;28;660225;-67
2021/01/08 05:18:38;;;;;;;50.33;21.33;;;-0.70;99.90;;;;;;4367869;28;660452;-68
2021/01/08 05:21:25;;;;;;;52.53;22.37;;;-0.70;99.90;;;;;;4373688;28;659596;-68
2021/01/08 05:24:12;;;;;;;56.87;23.20;;;-0.70;99.90;;;;;;4394879;28;659394;-68
2021/01/08 05:27:04;;;;;;;54.00;21.40;;;-0.70;99.90;;;;;;4378235;28;658713;-67
2021/01/08 05:29:52;;;;;;;54.30;22.33;;;-0.70;99.90;;;;;;4365397;28;660322;-68
2021/01/08 05:32:39;;;;;;;56.73;21.70;;;-0.70;99.90;;;;;;4370370;28;658603;-68
2021/01/08 05:35:28;;;;;;;53.90;21.50;;;-0.80;99.90;;;;;;4396492;28;660302;-68
2021/01/08 05:38:15;;;;;;;56.07;21.77;;;-0.80;99.90;;;;;;4373903;28;659888;-68
2021/01/08 05:41:03;;;;;;;55.77;20.47;;;-0.80;99.90;;;;;;4388195;28;660572;-68
2021/01/08 05:43:50;;;;;;;53.07;22.73;;;-0.80;99.90;;;;;;4369176;28;658492;-68
2021/01/08 05:46:38;;;;;;;52.67;21.60;;;-0.80;99.90;;;;;;4395828;28;659650;-67
2021/01/08 05:49:25;;;;;;;55.33;21.97;;;-0.80;99.90;;;;;;4377353;28;658727;-68
2021/01/08 05:52:13;;;;;;;58.47;23.00;;;-0.80;99.90;;;;;;4393828;28;659343;-68
2021/01/08 05:55:00;;;;;;;52.63;22.50;;;-0.80;99.90;;;;;;4378067;28;658668;-68
2021/01/08 05:57:50;;;;;;;60.37;24.13;;;-0.80;99.90;;;;;;4407227;28;659214;-68
2021/01/08 06:00:37;;;;;;;61.23;25.07;;;-0.90;99.90;;;;;;4390185;28;660173;-68
2021/01/08 06:03:25;;;;;;;72.63;28.30;;;-0.90;99.90;;;;;;4383805;28;659888;-66
2021/01/08 06:06:12;;;;;;;71.60;29.27;;;-0.90;99.90;;;;;;4405805;28;660567;-68
2021/01/08 06:08:59;;;;;;;77.93;30.73;;;-1.00;99.90;;;;;;4393695;28;658745;-67
2021/01/08 06:11:46;;;;;;;80.53;31.43;;;-1.00;99.90;;;;;;4408135;28;659382;-68
2021/01/08 06:14:33;;;;;;;73.30;30.70;;;-1.00;99.90;;;;;;4413247;28;660377;-68
2021/01/08 06:17:20;;;;;;;74.30;30.30;;;-1.00;99.90;;;;;;4394609;28;660127;-67
2021/01/08 06:20:09;;;;;;;95.40;36.60;;;-1.10;99.90;;;;;;4413090;28;659481;-68
2021/01/08 06:22:56;;;;;;;95.60;36.43;;;-1.10;99.90;;;;;;4389901;28;660391;-68
2021/01/08 06:25:44;;;;;;;393.23;79.07;;;-1.10;99.90;;;;;;4398490;28;659690;-65
2021/01/08 06:28:34;;;;;;;334.00;73.20;;;-1.10;99.90;;;;;;4419560;28;659779;-68
2021/01/08 06:31:35;;;;;;;201.73;52.40;;;-1.20;99.90;;;;;;4391383;28;661550;-68
2021/01/08 06:34:23;;;;;;;391.60;83.07;;;-1.20;99.90;;;;;;4387155;28;659552;-68
2021/01/08 06:37:13;;;;;;;265.67;69.27;;;-1.20;99.90;;;;;;4391480;28;661542;-68
2021/01/08 06:40:00;;;;;;;134.13;49.07;;;-1.20;99.90;;;;;;4392307;28;660178;-68
2021/01/08 06:42:47;;;;;;;155.37;50.20;;;-1.20;99.90;;;;;;4417626;28;660722;-68
2021/01/08 06:45:34;;;;;;;236.90;62.27;;;-1.10;99.90;;;;;;4387099;28;659825;-68
2021/01/08 06:48:24;;;;;;;185.50;55.03;;;-1.10;99.90;;;;;;4409672;28;661022;-68
2021/01/08 06:51:11;;;;;;;128.23;46.27;;;-1.20;99.90;;;;;;4392144;28;660358;-68
2021/01/08 06:54:01;;;;;;;118.70;42.07;;;-1.20;99.90;;;;;;4402323;28;659588;-66
2021/01/08 06:56:49;;;;;;;144.53;47.77;;;-1.10;99.90;;;;;;4401395;28;660103;-66
2021/01/08 06:59:36;;;;;;;134.33;44.80;;;-1.10;99.90;;;;;;4406018;28;659015;-69
2021/01/08 07:02:25;;;;;;;121.13;43.50;;;-1.10;99.90;;;;;;4410228;28;659812;-68
2021/01/08 07:05:16;;;;;;;122.43;41.73;;;-1.10;99.90;;;;;;4382919;28;660452;-67
2021/01/08 07:08:04;;;;;;;167.70;49.97;;;-1.10;99.90;;;;;;4385274;28;659712;-68
2021/01/08 07:10:52;;;;;;;151.02;48.08;;;-1.10;99.90;;;;;;4390599;28;660729;-68
2021/01/08 07:13:39;;;;;;;133.50;43.40;;;-1.10;99.90;;;;;;4395930;28;659693;-67
2021/01/08 07:16:26;;;;;;;113.47;41.43;;;-1.10;99.90;;;;;;4414534;28;661478;-68
2021/01/08 07:19:14;;;;;;;171.63;45.97;;;-1.00;99.90;;;;;;4407661;28;660146;-66
2021/01/08 07:22:02;;;;;;;147.10;44.77;;;-1.00;99.90;;;;;;4405759;28;660350;-67
2021/01/08 07:24:49;;;;;;;139.83;43.00;;;-1.00;99.90;;;;;;4392770;28;659983;-67
2021/01/08 07:27:37;;;;;;;116.70;38.50;;;-1.00;99.90;;;;;;4409119;28;661461;-66
2021/01/08 07:30:24;;;;;;;108.00;36.37;;;-0.90;99.90;;;;;;4393935;28;659611;-67
2021/01/08 07:33:16;;;;;;;89.53;32.90;;;-0.90;99.90;;;;;;4402773;28;661012;-68
2021/01/08 07:36:20;;;;;;;96.90;32.67;;;-0.90;99.90;;;;;;4383458;28;658502;-65
2021/01/08 07:39:27;;;;;;;111.33;37.63;;;-0.80;99.90;;;;;;4389978;28;659777;-68
2021/01/08 07:42:33;;;;;;;102.27;34.10;;;-0.80;99.90;;;;;;4367933;28;660464;-67
2021/01/08 07:45:21;;;;;;;83.90;29.63;;;-0.70;99.90;;;;;;4387579;28;659584;-68
2021/01/08 07:48:17;;;;;;;69.73;27.87;;;-0.70;99.90;;;;;;4411522;28;658491;-68
2021/01/08 07:51:04;;;;;;;77.53;29.98;;;-0.70;99.90;;;;;;4391589;28;658749;-66
2021/01/08 07:53:52;;;;;;;70.73;26.70;;;-0.60;99.90;;;;;;4406054;28;660730;-68
2021/01/08 07:57:09;;;;;;;77.60;31.63;;;-0.50;99.90;;;;;;4385141;28;659214;-68
2021/01/08 07:59:56;;;;;;;95.23;35.07;;;-0.50;99.90;;;;;;4320671;28;659956;-68
2021/01/08 08:02:45;;;;;;;97.82;38.53;;;-0.40;99.90;;;;;;4323238;28;659032;-66
2021/01/08 08:05:32;;;;;;;92.53;34.13;;;-0.30;99.90;;;;;;4342020;28;660158;-68
2021/01/08 08:08:19;;;;;;;83.07;34.27;;;-0.20;99.90;;;;;;4324253;28;659001;-66
2021/01/08 08:11:26;;;;;;;81.10;33.27;;;-0.20;99.90;;;;;;4347109;28;659026;-68
2021/01/08 08:14:14;;;;;;;82.07;34.50;;;-0.10;99.90;;;;;;4316759;28;659310;-66
2021/01/08 08:17:01;;;;;;;83.27;31.63;;;0.00;99.90;;;;;;4336369;28;660484;-68
2021/01/08 08:19:49;;;;;;;93.97;32.40;;;0.10;99.90;;;;;;4340365;28;657418;-68
2021/01/08 08:22:36;;;;;;;92.70;32.90;;;0.20;99.90;;;;;;4325540;28;657995;-68
2021/01/08 08:25:24;;;;;;;79.57;31.97;;;0.20;99.90;;;;;;4342805;28;657176;-68
2021/01/08 08:28:11;;;;;;;74.13;31.47;;;0.30;99.90;;;;;;4314223;28;659602;-68
2021/01/08 08:30:59;;;;;;;73.23;30.47;;;0.40;99.90;;;;;;4335863;28;657924;-66
2021/01/08 08:33:46;;;;;;;75.77;31.47;;;0.40;99.90;;;;;;4338895;28;658979;-68
2021/01/08 08:36:34;;;;;;;74.47;30.37;;;0.50;99.90;;;;;;4355233;28;658203;-69
2021/01/08 08:39:21;;;;;;;79.45;32.42;;;0.60;99.90;;;;;;4394139;28;658432;-68
2021/01/08 08:42:08;;;;;;;80.90;31.95;;;0.70;99.90;;;;;;4409546;28;658910;-68
2021/01/08 08:44:55;;;;;;;95.47;35.40;;;0.80;99.90;;;;;;4386823;28;657623;-68
2021/01/08 08:47:43;;;;;;;102.17;38.67;;;0.80;99.90;;;;;;4406949;28;658623;-68
2021/01/08 08:50:30;;;;;;;126.30;46.00;;;0.90;99.90;;;;;;4379426;28;659802;-68
2021/01/08 08:53:18;;;;;;;112.40;43.40;;;1.00;99.90;;;;;;4407023;28;659265;-68
2021/01/08 08:56:14;;;;;;;120.27;45.53;;;1.10;99.90;;;;;;4379994;28;660034;-68
2021/01/08 08:59:01;;;;;;;115.90;44.80;;;1.20;99.90;;;;;;4367384;28;659342;-68
2021/01/08 09:01:49;;;;;;;93.77;38.33;;;1.30;99.90;;;;;;4392603;28;658553;-66
2021/01/08 09:04:35;;;;;;;95.27;35.57;;;1.30;99.90;;;;;;4398565;28;657139;-68
2021/01/08 09:07:25;;;;;;;91.57;36.33;;;1.40;99.90;;;;;;4398548;28;657834;-68
2021/01/08 09:10:14;;;;;;;75.03;32.00;;;1.40;99.90;;;;;;4363661;28;657843;-68
2021/01/08 09:13:07;;;;;;;77.27;31.83;;;1.50;99.90;;;;;;4374907;28;659290;-68
2021/01/08 09:15:57;;;;;;;66.27;28.80;;;1.60;99.90;;;;;;4343454;28;658397;-68
2021/01/08 09:18:47;;;;;;;55.30;24.27;;;1.60;99.90;;;;;;4366671;28;657257;-68
2021/01/08 09:21:37;;;;;;;57.65;25.23;;;1.70;99.90;;;;;;4377781;28;657420;-66
2021/01/08 09:24:25;;;;;;;69.20;27.97;;;1.90;99.90;;;;;;4379097;28;657680;-68
2021/01/08 09:27:13;;;;;;;57.73;24.57;;;1.90;99.90;;;;;;4399446;28;658148;-68
2021/01/08 09:30:07;;;;;;;63.53;27.27;;;2.10;99.90;;;;;;4369690;28;659126;-69
2021/01/08 09:32:54;;;;;;;68.83;29.33;;;2.10;99.90;;;;;;4352116;28;657888;-67
2021/01/08 09:35:44;;;;;;;66.20;28.57;;;2.20;99.90;;;;;;4388537;28;658441;-68
2021/01/08 09:38:30;;;;;;;64.80;26.93;;;2.30;99.90;;;;;;4370732;28;659638;-69
2021/01/08 09:41:17;;;;;;;77.13;29.73;;;2.40;99.90;;;;;;4394740;28;658284;-69
2021/01/08 09:44:06;;;;;;;70.30;28.93;;;2.40;99.90;;;;;;4372861;28;658905;-68
2021/01/08 09:46:54;;;;;;;66.47;26.90;;;2.50;99.90;;;;;;4393670;28;657934;-67
2021/01/08 09:49:42;;;;;;;73.13;31.00;;;2.60;99.90;;;;;;4396024;28;657617;-69
2021/01/08 09:52:29;;;;;;;71.20;28.83;;;2.60;99.90;;;;;;4363600;28;658365;-67
2021/01/08 09:55:23;;;;;;;61.43;25.10;;;2.70;99.90;;;;;;4394249;28;658785;-69
2021/01/08 09:58:10;;;;;;;55.67;24.20;;;2.60;99.90;;;;;;4359479;28;658728;-69
2021/01/08 10:00:58;;;;;;;51.33;20.60;;;2.70;99.90;;;;;;4410821;28;657693;-70
2021/01/08 10:03:50;;;;;;;54.90;22.67;;;2.70;99.90;;;;;;4384366;28;660353;-69
2021/01/08 10:06:55;;;;;;;55.22;23.83;;;2.70;99.90;;;;;;4377341;28;659644;-69
2021/01/08 10:09:48;;;;;;;55.07;24.13;;;2.90;99.90;;;;;;4390027;28;657988;-69
2021/01/08 10:12:44;;;;;;;16.07;7.10;;;2.90;99.90;;;;;;4364486;28;657873;-69
2021/01/08 10:15:35;;;;;;;63.60;25.57;;;3.40;99.90;;;;;;4395447;28;656675;-69
2021/01/08 10:18:24;;;;;;;67.83;27.07;;;3.50;99.90;;;;;;4396213;28;658784;-69
2021/01/08 10:21:13;;;;;;;64.37;27.73;;;4.60;99.90;;;;;;4388685;28;658438;-69
2021/01/08 10:24:01;;;;;;;69.17;30.60;;;5.20;92.00;;;;;;4379729;28;657632;-68
2021/01/08 10:26:48;;;;;;;83.10;34.30;;;5.80;85.30;;;;;;4409335;28;657282;-69
2021/01/08 10:29:35;;;;;;;56.10;22.73;;;5.90;80.40;;;;;;4396610;28;657383;-69
2021/01/08 10:32:22;;;;;;;61.47;27.13;;;6.20;75.60;;;;;;4406679;28;658570;-69
2021/01/08 10:35:12;;;;;;;47.17;22.20;;;6.00;76.70;;;;;;4392721;28;657611;-68
2021/01/08 10:37:59;;;;;;;58.17;25.63;;;6.30;70.90;;;;;;4393909;28;657476;-68
2021/01/08 10:40:46;;;;;;;56.90;24.40;;;5.80;74.10;;;;;;4411881;28;659280;-69
2021/01/08 10:43:34;;;;;;;50.72;21.85;;;5.50;74.50;;;;;;4395827;28;658846;-66
2021/01/08 10:46:21;;;;;;;56.73;22.60;;;5.30;73.20;;;;;;4411941;28;658856;-69
2021/01/08 10:49:09;;;;;;;58.17;24.70;;;5.30;73.90;;;;;;4406581;28;658072;-67
2021/01/08 10:51:56;;;;;;;54.93;22.20;;;4.80;72.60;;;;;;4410019;28;657144;-69
2021/01/08 10:54:44;;;;;;;56.90;22.77;;;4.60;74.80;;;;;;4401553;28;657441;-66
2021/01/08 10:57:31;;;;;;;50.27;20.63;;;4.60;75.20;;;;;;4416518;28;657744;-69
2021/01/08 11:00:20;;;;;;;57.67;22.42;;;4.90;73.70;;;;;;4403505;28;657765;-69
2021/01/08 11:03:07;;;;;;;46.67;18.80;;;5.00;73.90;;;;;;4384884;28;658682;-69
2021/01/08 11:05:54;;;;;;;34.83;14.10;;;5.40;70.70;;;;;;4389465;28;657496;-67
2021/01/08 11:08:42;;;;;;;35.60;15.60;;;5.50;69.70;;;;;;4413210;28;658400;-69
2021/01/08 11:11:29;;;;;;;36.13;16.37;;;5.50;66.90;;;;;;4391587;28;658590;-69
2021/01/08 11:14:16;;;;;;;28.23;11.73;;;5.20;69.50;;;;;;4409809;28;659378;-69
2021/01/08 11:17:04;;;;;;;41.87;15.63;;;5.30;68.20;;;;;;4411263;28;657491;-67
2021/01/08 11:19:51;;;;;;;33.67;12.83;;;4.80;69.20;;;;;;4403634;28;657187;-68
2021/01/08 11:22:37;;;;;;;31.60;14.07;;;5.00;69.10;;;;;;4412232;28;658221;-68
2021/01/08 11:25:26;;;;;;;27.93;10.97;;;4.90;69.10;;;;;;4390416;28;657570;-68
2021/01/08 11:28:12;;;;;;;23.17;9.50;;;4.60;70.30;;;;;;4407337;28;658046;-70
2021/01/08 11:30:59;;;;;;;31.23;13.47;;;4.40;70.30;;;;;;4392453;28;656608;-69
2021/01/08 11:33:46;;;;;;;31.23;13.93;;;4.50;70.40;;;;;;4419258;28;658814;-69
2021/01/08 11:36:34;;;;;;;26.13;10.07;;;4.90;70.60;;;;;;4402413;28;657527;-64
2021/01/08 11:39:21;;;;;;;33.77;13.00;;;5.80;66.30;;;;;;4412880;28;658115;-69
2021/01/08 11:42:09;;;;;;;15.27;6.07;;;5.60;65.10;;;;;;4408901;28;659049;-69
2021/01/08 11:44:56;;;;;;;30.10;12.27;;;6.30;64.50;;;;;;4387756;28;657433;-69
2021/01/08 11:47:44;;;;;;;27.17;12.00;;;7.30;62.50;;;;;;4395901;28;657836;-66
2021/01/08 11:50:31;;;;;;;27.47;11.43;;;8.10;58.20;;;;;;4420595;28;657281;-69
2021/01/08 11:53:17;;;;;;;13.03;6.10;;;8.80;54.50;;;;;;4414254;28;660101;-69
2021/01/08 11:56:05;;;;;;;27.50;11.67;;;8.10;55.30;;;;;;4386488;28;657023;-69
2021/01/08 11:58:53;;;;;;;9.38;4.57;;;7.80;57.40;;;;;;4408489;28;658482;-69
2021/01/08 12:01:40;;;;;;;17.17;6.77;;;8.60;55.90;;;;;;4388223;28;657082;-68
2021/01/08 12:04:28;;;;;;;16.13;5.73;;;9.80;53.20;;;;;;4413624;28;658082;-69
2021/01/08 12:07:15;;;;;;;23.97;10.53;;;10.60;49.20;;;;;;4388800;28;656395;-68
2021/01/08 12:10:02;;;;;;;24.63;10.50;;;11.10;49.80;;;;;;4407254;28;659969;-69
2021/01/08 12:12:50;;;;;;;29.80;11.03;;;11.70;46.20;;;;;;4386066;28;659368;-68
2021/01/08 12:15:38;;;;;;;26.60;10.53;;;11.40;46.00;;;;;;4408060;28;660253;-69
2021/01/08 12:18:25;;;;;;;26.00;11.13;;;10.50;47.10;;;;;;4388734;28;658643;-68
2021/01/08 12:21:12;;;;;;;26.52;11.60;;;10.60;47.70;;;;;;4413644;28;659695;-69
2021/01/08 12:23:59;;;;;;;27.77;11.88;;;10.20;48.60;;;;;;4385114;28;658860;-65
2021/01/08 12:26:47;;;;;;;22.40;10.83;;;9.60;50.20;;;;;;4413604;28;658219;-69
2021/01/08 12:29:34;;;;;;;24.87;10.40;;;10.20;49.80;;;;;;4391304;28;657437;-69
2021/01/08 12:32:22;;;;;;;22.00;10.53;;;11.70;47.50;;;;;;4413501;28;659387;-69
2021/01/08 12:35:10;;;;;;;19.40;10.23;;;11.90;47.50;;;;;;4393580;28;659864;-67
2021/01/08 12:37:57;;;;;;;17.73;8.27;;;12.50;44.30;;;;;;4414648;28;659045;-69
2021/01/08 12:40:44;;;;;;;18.10;7.83;;;13.70;42.30;;;;;;4391566;28;657529;-65
2021/01/08 12:43:31;;;;;;;12.20;6.00;;;13.80;40.90;;;;;;4414624;28;657623;-68
2021/01/08 12:46:20;;;;;;;12.83;6.53;;;12.60;39.30;;;;;;4414558;28;658000;-69
2021/01/08 12:49:08;;;;;;;10.93;5.77;;;12.90;40.20;;;;;;4390078;28;658624;-69
2021/01/08 12:51:55;;;;;;;12.03;5.70;;;12.70;39.70;;;;;;4396580;28;658482;-68
2021/01/08 12:54:42;;;;;;;12.50;5.40;;;12.10;39.40;;;;;;4409643;28;658736;-68
2021/01/08 12:57:29;;;;;;;13.67;6.60;;;10.50;41.90;;;;;;4391111;28;658684;-66
2021/01/08 13:00:17;;;;;;;12.17;6.40;;;10.30;43.30;;;;;;4408475;28;657434;-69
2021/01/08 13:03:05;;;;;;;13.17;6.00;;;10.40;44.30;;;;;;4387232;28;657484;-68
2021/01/08 13:05:53;;;;;;;14.23;6.20;;;10.80;42.30;;;;;;4410904;28;658209;-68
2021/01/08 13:08:40;;;;;;;12.50;6.10;;;10.60;42.80;;;;;;4387112;28;657566;-68
2021/01/08 13:11:27;;;;;;;9.18;4.03;;;10.40;44.00;;;;;;4411859;28;658442;-68
2021/01/08 13:14:14;;;;;;;12.50;5.27;;;10.00;44.00;;;;;;4397125;28;657276;-65
2021/01/08 13:17:01;;;;;;;9.73;4.73;;;10.20;43.90;;;;;;4418618;28;657203;-69
2021/01/08 13:19:48;;;;;;;6.23;3.20;;;9.90;44.80;;;;;;4411628;28;658718;-69
2021/01/08 13:22:35;;;;;;;9.80;4.30;;;9.80;44.70;;;;;;4393430;28;656842;-68
2021/01/08 13:25:24;;;;;;;10.57;3.93;;;9.20;45.40;;;;;;4413577;28;656343;-69
2021/01/08 13:28:11;;;;;;;10.83;4.87;;;8.00;46.50;;;;;;4393552;28;657540;-68
2021/01/08 13:30:59;;;;;;;12.67;5.13;;;7.30;49.20;;;;;;4400161;28;656588;-65
2021/01/08 13:33:46;;;;;;;11.40;5.10;;;6.40;50.00;;;;;;4418324;28;656310;-68
2021/01/08 13:36:35;;;;;;;12.57;4.47;;;5.90;53.30;;;;;;4407738;28;657433;-69
2021/01/08 13:39:26;;;;;;;12.37;5.23;;;6.20;52.60;;;;;;4392767;28;657383;-69
2021/01/08 13:42:13;;;;;;;11.03;5.37;;;6.30;52.20;;;;;;4393286;28;656790;-69
2021/01/08 13:45:00;;;;;;;12.87;6.00;;;5.80;52.90;;;;;;4393836;28;658146;-68
2021/01/08 13:47:47;;;;;;;15.97;6.43;;;6.40;53.30;;;;;;4408144;28;657435;-69
2021/01/08 13:50:34;;;;;;;16.27;6.70;;;7.20;51.00;;;;;;4392105;28;656529;-65
2021/01/08 13:53:21;;;;;;;16.50;7.10;;;7.90;50.20;;;;;;4414710;28;656060;-68
2021/01/08 13:56:13;;;;;;;21.47;6.47;;;9.10;48.60;;;;;;4408749;28;656897;-68
2021/01/08 13:59:00;;;;;;;14.47;7.03;;;9.90;46.60;;;;;;4358048;28;657663;-69
2021/01/08 14:01:47;;;;;;;17.83;8.40;;;10.10;44.90;;;;;;4406678;28;658536;-69
2021/01/08 14:04:34;;;;;;;19.02;7.78;;;9.70;45.00;;;;;;4391531;28;658012;-65
2021/01/08 14:07:21;;;;;;;16.85;7.82;;;9.80;47.40;;;;;;4417516;28;656056;-69